createdAt,value
2022-10-19T00:00:32.165Z,102584.13
2022-10-19T00:02:58.680Z,102585.81
2022-10-19T00:05:28.386Z,102589.47
2022-10-19T00:07:55.580Z,102580.53
2022-10-19T00:10:22.083Z,102584.44
2022-10-19T00:15:15.512Z,102579.25
2022-10-19T00:17:43.241Z,102585.09
2022-10-19T00:20:10.413Z,102577.59
2022-10-19T00:22:36.887Z,102583.91
2022-10-19T00:25:03.809Z,102582.50
2022-10-19T00:27:30.529Z,102592.41
2022-10-19T00:29:57.027Z,102599.88
2022-10-19T00:32:23.498Z,102588.84
2022-10-19T00:34:50.088Z,102582.13
2022-10-19T00:37:16.802Z,102590.16
2022-10-19T00:39:43.343Z,102595.69
2022-10-19T00:42:13.148Z,102591.03
2022-10-19T00:44:39.511Z,102598.34
2022-10-19T00:47:08.026Z,102600.03
2022-10-19T00:49:42.807Z,102600.44
2022-10-19T00:52:12.672Z,102603.31
2022-10-19T00:54:41.468Z,102608.25
2022-10-19T00:57:08.181Z,102599.59
2022-10-19T00:59:35.074Z,102599.63
2022-10-19T01:02:03.473Z,102604.25
2022-10-19T01:04:30.908Z,102607.16
2022-10-19T01:06:57.614Z,102606.94
2022-10-19T01:09:24.103Z,102617.03
2022-10-19T01:12:36.280Z,102612.69
2022-10-19T01:15:27.713Z,102612.81
2022-10-19T01:18:01.022Z,102613.53
2022-10-19T01:20:46.301Z,102615.38
2022-10-19T01:23:38.244Z,102622.63
2022-10-19T01:26:32.679Z,102618.44
2022-10-19T01:29:08.583Z,102626.97
2022-10-19T01:31:48.503Z,102621.63
2022-10-19T01:34:17.968Z,102631.97
2022-10-19T01:36:55.776Z,102621.75
2022-10-19T01:39:32.384Z,102624.56
2022-10-19T01:42:36.432Z,102627.22
2022-10-19T01:45:26.204Z,102630.28
2022-10-19T01:47:59.878Z,102637.13
2022-10-19T01:50:32.373Z,102633.34
2022-10-19T01:52:59.411Z,102630.38
2022-10-19T01:55:26.874Z,102631.75
2022-10-19T01:58:08.352Z,102631.50
2022-10-19T02:00:37.878Z,102628.72
2022-10-19T02:03:05.458Z,102630.06
2022-10-19T02:05:33.379Z,102626.56
2022-10-19T02:08:03.207Z,102631.47
2022-10-19T02:10:31.804Z,102630.84
2022-10-19T02:12:58.400Z,102631.84
2022-10-19T02:15:26.887Z,102629.75
2022-10-19T02:17:57.366Z,102634.13
2022-10-19T02:20:24.254Z,102637.16
2022-10-19T02:22:50.933Z,102631.84
2022-10-19T02:25:17.422Z,102633.19
2022-10-19T02:27:44.220Z,102630.56
2022-10-19T02:30:16.572Z,102636.31
2022-10-19T02:32:44.107Z,102634.22
2022-10-19T02:35:12.244Z,102636.03
2022-10-19T02:37:40.445Z,102638.25
2022-10-19T02:40:07.893Z,102638.47
2022-10-19T02:42:42.072Z,102637.56
2022-10-19T02:45:16.778Z,102645.97
2022-10-19T02:47:48.699Z,102650.44
2022-10-19T02:50:15.563Z,102655.34
2022-10-19T02:52:42.062Z,102652.25
2022-10-19T02:55:09.216Z,102650.31
2022-10-19T02:57:36.264Z,102650.03
2022-10-19T03:00:05.428Z,102660.03
2022-10-19T03:02:31.998Z,102656.22
2022-10-19T03:04:58.623Z,102657.53
2022-10-19T03:07:25.303Z,102656.16
2022-10-19T03:09:51.776Z,102657.81
2022-10-19T03:12:18.291Z,102653.81
2022-10-19T03:14:44.907Z,102655.13
2022-10-19T03:17:11.742Z,102655.09
2022-10-19T03:19:38.278Z,102656.53
2022-10-19T03:22:05.749Z,102657.25
2022-10-19T03:24:32.940Z,102657.94
2022-10-19T03:26:59.451Z,102655.59
2022-10-19T03:29:25.975Z,102659.34
2022-10-19T03:31:52.584Z,102671.75
2022-10-19T03:34:19.056Z,102679.44
2022-10-19T03:36:45.528Z,102673.47
2022-10-19T03:39:13.666Z,102672.50
2022-10-19T03:41:40.324Z,102674.28
2022-10-19T03:44:08.356Z,102674.66
2022-10-19T03:46:35.485Z,102669.00
2022-10-19T03:49:02.066Z,102669.06
2022-10-19T03:51:29.909Z,102668.41
2022-10-19T03:54:02.005Z,102676.44
2022-10-19T03:56:30.236Z,102680.84
2022-10-19T03:58:58.477Z,102678.94
2022-10-19T04:01:30.424Z,102691.13
2022-10-19T04:03:58.536Z,102685.09
2022-10-19T04:06:27.601Z,102692.81
2022-10-19T04:08:54.246Z,102691.25
2022-10-19T04:11:23.872Z,102692.00
2022-10-19T04:13:51.381Z,102702.34
2022-10-19T04:16:18.421Z,102703.72
2022-10-19T04:18:45.053Z,102707.72
2022-10-19T04:21:24.649Z,102713.81
2022-10-19T04:23:52.311Z,102713.22
2022-10-19T04:26:19.091Z,102715.75
2022-10-19T04:28:45.617Z,102738.84
2022-10-19T04:31:12.746Z,102731.59
2022-10-19T04:33:39.711Z,102733.06
2022-10-19T04:36:08.448Z,102739.56
2022-10-19T04:38:35.513Z,102743.91
2022-10-19T04:41:06.130Z,102751.59
2022-10-19T04:43:32.852Z,102751.50
2022-10-19T04:46:10.076Z,102751.75
2022-10-19T04:48:38.115Z,102755.63
2022-10-19T04:51:05.211Z,102752.28
2022-10-19T04:53:32.145Z,102752.50
2022-10-19T04:55:58.653Z,102755.41
2022-10-19T04:58:25.207Z,102755.81
2022-10-19T05:00:51.962Z,102756.78
2022-10-19T05:03:18.474Z,102758.94
2022-10-19T05:05:44.968Z,102766.03
2022-10-19T05:08:11.662Z,102761.22
2022-10-19T05:10:38.335Z,102761.44
2022-10-19T05:13:04.928Z,102769.84
2022-10-19T05:15:31.444Z,102760.09
2022-10-19T05:17:58.011Z,102769.88
2022-10-19T05:20:24.843Z,102763.09
2022-10-19T05:22:51.787Z,102767.16
2022-10-19T05:25:18.427Z,102757.88
2022-10-19T05:27:44.926Z,102755.91
2022-10-19T05:30:11.514Z,102754.25
2022-10-19T05:32:38.002Z,102758.47
2022-10-19T05:35:04.700Z,102749.31
2022-10-19T05:37:31.468Z,102760.88
2022-10-19T05:39:58.145Z,102755.97
2022-10-19T05:42:24.637Z,102757.53
2022-10-19T05:44:51.105Z,102748.38
2022-10-19T05:47:17.912Z,102754.00
2022-10-19T05:49:44.500Z,102745.97
2022-10-19T05:52:11.011Z,102751.66
2022-10-19T05:54:37.608Z,102754.41
2022-10-19T05:57:04.154Z,102760.41
2022-10-19T05:59:30.995Z,102761.34
2022-10-19T06:01:57.490Z,102761.63
2022-10-19T06:04:24.009Z,102758.16
2022-10-19T06:06:50.561Z,102765.50
2022-10-19T06:09:17.259Z,102773.66
2022-10-19T06:11:43.764Z,102779.41
2022-10-19T06:14:15.701Z,102774.41
2022-10-19T06:16:42.444Z,102775.25
2022-10-19T06:19:08.962Z,102775.63
2022-10-19T06:21:35.544Z,102780.00
2022-10-19T06:24:04.550Z,102785.19
2022-10-19T06:26:32.484Z,102793.31
2022-10-19T06:29:00.596Z,102798.53
2022-10-19T06:31:31.568Z,102790.56
2022-10-19T06:33:58.210Z,102786.03
2022-10-19T06:36:28.331Z,102789.66
2022-10-19T06:38:56.461Z,102795.31
2022-10-19T06:41:23.492Z,102796.28
2022-10-19T06:43:51.107Z,102797.09
2022-10-19T06:46:20.439Z,102801.03
2022-10-19T06:48:54.916Z,102802.78
2022-10-19T06:51:21.742Z,102807.16
2022-10-19T06:53:52.961Z,102817.50
2022-10-19T06:56:24.487Z,102812.38
2022-10-19T06:58:51.003Z,102783.97
2022-10-19T07:01:18.451Z,102760.56
2022-10-19T07:03:45.092Z,102735.59
2022-10-19T07:06:12.949Z,102681.97
2022-10-19T07:08:41.042Z,102717.41
2022-10-19T07:11:10.500Z,102761.44
2022-10-19T07:13:37.407Z,102758.31
2022-10-19T07:16:16.144Z,102772.31
2022-10-19T07:18:46.671Z,102796.53
2022-10-19T07:21:14.930Z,102805.44
2022-10-19T07:23:43.195Z,102821.28
2022-10-19T07:26:18.629Z,102813.78
2022-10-19T07:28:46.734Z,102818.78
2022-10-19T07:31:17.669Z,102811.78
2022-10-19T07:33:44.688Z,102819.13
2022-10-19T07:36:13.557Z,102806.88
2022-10-19T07:38:40.499Z,102830.16
2022-10-19T07:41:15.081Z,102826.06
2022-10-19T07:43:42.348Z,102832.22
2022-10-19T07:46:11.752Z,102830.81
2022-10-19T07:48:38.203Z,102830.06
2022-10-19T07:51:07.142Z,102852.13
2022-10-19T07:53:34.472Z,102836.31
2022-10-19T07:56:10.474Z,102833.19
2022-10-19T07:58:37.487Z,102806.00
2022-10-19T08:01:13.079Z,102816.38
2022-10-19T08:06:26.320Z,102836.56
2022-10-19T08:08:53.463Z,102839.09
2022-10-19T08:11:23.233Z,102831.69
2022-10-19T08:13:50.141Z,102835.75
2022-10-19T08:16:36.586Z,102827.84
2022-10-19T08:19:07.147Z,102848.28
2022-10-19T08:21:34.489Z,102844.53
2022-10-19T08:24:01.043Z,102851.03
2022-10-19T08:26:32.303Z,102846.94
2022-10-19T08:29:02.759Z,102849.06
2022-10-19T08:31:29.426Z,102844.25
2022-10-19T08:33:56.298Z,102854.22
2022-10-19T08:36:23.239Z,102845.28
2022-10-19T08:38:50.162Z,102843.88
2022-10-19T08:41:22.534Z,102849.31
2022-10-19T08:43:59.401Z,102848.91
2022-10-19T08:46:43.967Z,102850.63
2022-10-19T08:49:13.011Z,102861.91
2022-10-19T08:51:40.822Z,102849.63
2022-10-19T08:54:12.460Z,102849.06
2022-10-19T08:56:51.403Z,102859.94
2022-10-19T08:59:23.840Z,102856.16
2022-10-19T09:01:57.021Z,102866.66
2022-10-19T09:04:39.860Z,102861.03
2022-10-19T09:07:18.243Z,102855.75
2022-10-19T09:09:50.630Z,102863.53
2022-10-19T09:12:19.974Z,102853.31
2022-10-19T09:14:55.450Z,102841.06
2022-10-19T09:17:21.920Z,102850.97
2022-10-19T09:19:48.432Z,102857.25
2022-10-19T09:22:26.252Z,102861.59
2022-10-19T09:24:55.620Z,102861.91
2022-10-19T09:27:29.363Z,102861.03
2022-10-19T09:30:03.677Z,102864.56
2022-10-19T09:32:36.201Z,102855.16
2022-10-19T09:35:14.888Z,102848.38
2022-10-19T09:37:45.802Z,102840.97
2022-10-19T09:40:27.112Z,102843.06
2022-10-19T09:43:03.278Z,102849.56
2022-10-19T09:45:44.194Z,102844.41
2022-10-19T09:48:36.095Z,102845.47
2022-10-19T09:51:03.923Z,102847.38
2022-10-19T09:53:30.465Z,102844.19
2022-10-19T09:56:04.882Z,102850.34
2022-10-19T09:58:33.115Z,102836.75
2022-10-19T10:01:00.487Z,102833.72
2022-10-19T10:03:40.251Z,102842.75
2022-10-19T10:06:09.630Z,102822.81
2022-10-19T10:08:39.034Z,102816.84
2022-10-19T10:11:10.808Z,102811.69
2022-10-19T10:13:39.564Z,102813.66
2022-10-19T10:16:08.790Z,102823.88
2022-10-19T10:18:52.978Z,102826.06
2022-10-19T10:21:35.306Z,102813.25
2022-10-19T10:24:10.819Z,102818.81
2022-10-19T10:26:42.636Z,102815.47
2022-10-19T10:29:32.705Z,102799.38
2022-10-19T10:32:05.658Z,102810.56
2022-10-19T10:34:56.927Z,102814.63
2022-10-19T10:37:44.415Z,102815.91
2022-10-19T10:40:24.681Z,102812.53
2022-10-19T10:42:53.597Z,102799.34
2022-10-19T10:45:26.250Z,102788.25
2022-10-19T10:47:52.979Z,102818.78
2022-10-19T10:50:22.600Z,102782.66
2022-10-19T10:53:00.932Z,102774.72
2022-10-19T10:55:28.171Z,102773.91
2022-10-19T10:58:09.469Z,102778.81
2022-10-19T11:00:40.117Z,102780.34
2022-10-19T11:03:25.299Z,102753.28
2022-10-19T11:05:56.401Z,102765.38
2022-10-19T11:08:32.194Z,102769.81
2022-10-19T11:11:15.513Z,102743.31
2022-10-19T11:13:57.075Z,102712.25
2022-10-19T11:16:38.629Z,102688.44
2022-10-19T11:21:47.940Z,102690.28
2022-10-19T11:24:39.083Z,102694.56
2022-10-19T11:27:42.457Z,102696.63
2022-10-19T11:30:10.811Z,102667.72
2022-10-19T11:32:58.680Z,102669.09
2022-10-19T11:36:04.473Z,102668.41
2022-10-19T11:38:52.691Z,102669.94
2022-10-19T11:41:39.230Z,102635.19
2022-10-19T11:44:43.302Z,102627.78
2022-10-19T11:47:34.800Z,102592.31
2022-10-19T11:50:33.130Z,102592.81
2022-10-19T11:53:10.570Z,102615.22
2022-10-19T11:55:51.352Z,102623.88
2022-10-19T11:58:52.616Z,102683.78
2022-10-19T12:01:56.571Z,102659.84
2022-10-19T12:04:50.564Z,102654.19
2022-10-19T12:07:29.055Z,102654.75
2022-10-19T12:10:22.242Z,102616.28
2022-10-19T12:13:01.822Z,102634.66
2022-10-19T12:15:32.316Z,102570.47
2022-10-19T12:18:04.381Z,102561.38
2022-10-19T12:20:45.091Z,102573.84
2022-10-19T12:23:35.638Z,102563.50
2022-10-19T12:26:04.951Z,102549.22
2022-10-19T12:28:33.732Z,102533.88
2022-10-19T12:31:01.652Z,102549.81
2022-10-19T12:33:38.106Z,102554.63
2022-10-19T12:36:13.004Z,102522.78
2022-10-19T12:38:53.742Z,102479.59
2022-10-19T12:41:52.435Z,102488.72
2022-10-19T12:44:32.277Z,102497.59
2022-10-19T12:47:21.262Z,102499.09
2022-10-19T12:49:49.804Z,102553.34
2022-10-19T12:52:38.157Z,102507.34
2022-10-19T12:55:24.841Z,102441.91
2022-10-19T12:58:06.732Z,102473.06
2022-10-19T13:00:37.779Z,102494.91
2022-10-19T13:03:07.404Z,102485.25
2022-10-19T13:05:35.007Z,102491.91
2022-10-19T13:08:04.043Z,102496.59
2022-10-19T13:10:32.339Z,102473.94
2022-10-19T13:12:58.976Z,102437.56
2022-10-19T13:15:50.011Z,102429.28
2022-10-19T13:18:54.758Z,102427.69
2022-10-19T13:21:43.830Z,102386.78
2022-10-19T13:24:25.166Z,102401.94
2022-10-19T13:27:03.818Z,102445.47
2022-10-19T13:29:40.267Z,102436.44
2022-10-19T13:32:44.595Z,102452.03
2022-10-19T13:35:37.262Z,102501.03
2022-10-19T13:38:10.047Z,102518.31
2022-10-19T13:40:56.706Z,102463.22
2022-10-19T13:43:29.330Z,102452.31
2022-10-19T13:46:06.488Z,102433.84
2022-10-19T13:48:54.400Z,102391.28
2022-10-19T13:51:32.639Z,102400.19
2022-10-19T13:54:08.289Z,102436.22
2022-10-19T13:56:58.967Z,102450.56
2022-10-19T13:59:49.812Z,102398.31
2022-10-19T14:02:35.685Z,102433.97
2022-10-19T14:05:20.764Z,102396.88
2022-10-19T14:08:01.035Z,102382.47
2022-10-19T14:10:32.872Z,102392.94
2022-10-19T14:13:00.292Z,102381.81
2022-10-19T14:15:29.565Z,102403.66
2022-10-19T14:17:57.041Z,102394.69
2022-10-19T14:20:34.825Z,102424.28
2022-10-19T14:23:20.592Z,102466.50
2022-10-19T14:25:51.692Z,102500.44
2022-10-19T14:28:18.149Z,102527.78
2022-10-19T14:30:44.630Z,102546.28
2022-10-19T14:33:14.476Z,102485.03
2022-10-19T14:35:44.858Z,102436.56
2022-10-19T14:38:18.610Z,102477.38
2022-10-19T14:40:45.071Z,102532.09
2022-10-19T14:43:25.780Z,102527.44
2022-10-19T14:46:07.518Z,102494.81
2022-10-19T14:48:45.450Z,102465.91
2022-10-19T14:51:45.146Z,102415.00
2022-10-19T14:54:20.439Z,102382.72
2022-10-19T14:56:56.318Z,102416.44
2022-10-19T14:59:30.971Z,102459.53
2022-10-19T15:01:59.939Z,102499.97
2022-10-19T15:04:32.912Z,102516.06
2022-10-19T15:07:01.400Z,102546.56
2022-10-19T15:09:37.295Z,102573.66
2022-10-19T15:12:18.262Z,102597.81
2022-10-19T15:14:45.630Z,102592.06
2022-10-19T15:17:21.279Z,102593.81
2022-10-19T15:19:47.746Z,102579.22
2022-10-19T15:22:14.137Z,102572.69
2022-10-19T15:24:55.481Z,102579.50
2022-10-19T15:27:28.487Z,102593.81
2022-10-19T15:29:56.895Z,102593.81
2022-10-19T15:32:25.538Z,102612.28
2022-10-19T15:34:52.208Z,102614.34
2022-10-19T15:37:22.425Z,102617.66
2022-10-19T15:39:50.353Z,102638.56
2022-10-19T15:42:52.333Z,102644.00
2022-10-19T15:45:32.795Z,102638.72
2022-10-19T15:48:22.379Z,102646.94
2022-10-19T15:50:51.802Z,102646.84
2022-10-19T15:53:19.743Z,102663.66
2022-10-19T15:55:46.682Z,102665.91
2022-10-19T15:58:14.215Z,102664.69
2022-10-19T16:00:41.184Z,102665.13
2022-10-19T16:03:07.673Z,102665.28
2022-10-19T16:05:35.868Z,102673.94
2022-10-19T16:08:02.325Z,102673.53
2022-10-19T16:10:28.797Z,102693.94
2022-10-19T16:12:55.313Z,102676.44
2022-10-19T16:15:22.899Z,102680.06
2022-10-19T16:17:54.623Z,102682.41
2022-10-19T16:20:21.466Z,102688.50
2022-10-19T16:22:48.583Z,102700.94
2022-10-19T16:25:15.488Z,102695.25
2022-10-19T16:27:41.965Z,102697.47
2022-10-19T16:30:08.908Z,102694.03
2022-10-19T16:32:35.477Z,102699.25
2022-10-19T16:35:02.062Z,102704.72
2022-10-19T16:37:28.576Z,102708.38
2022-10-19T16:39:55.031Z,102705.44
2022-10-19T16:42:22.347Z,102705.69
2022-10-19T16:44:50.209Z,102715.75
2022-10-19T16:47:19.619Z,102710.72
2022-10-19T16:49:48.871Z,102702.19
2022-10-19T16:52:15.342Z,102692.25
2022-10-19T16:54:41.835Z,102700.50
2022-10-19T16:57:11.637Z,102699.38
2022-10-19T16:59:38.441Z,102716.44
2022-10-19T17:02:05.073Z,102710.41
2022-10-19T17:04:31.527Z,102713.19
2022-10-19T17:06:58.165Z,102717.78
2022-10-19T17:12:11.834Z,102711.78
2022-10-19T17:14:39.625Z,102717.06
2022-10-19T17:17:06.344Z,102726.38
2022-10-19T17:19:32.863Z,102723.50
2022-10-19T17:21:59.354Z,102741.16
2022-10-19T17:24:26.144Z,102740.63
2022-10-19T17:26:54.150Z,102738.56
2022-10-19T17:29:28.908Z,102750.78
2022-10-19T17:31:55.479Z,102745.13
2022-10-19T17:34:22.087Z,102744.03
2022-10-19T17:36:53.207Z,102746.47
2022-10-19T17:39:27.241Z,102744.19
2022-10-19T17:41:57.593Z,102738.44
2022-10-19T17:44:24.783Z,102746.50
2022-10-19T17:46:51.582Z,102747.69
2022-10-19T17:49:18.744Z,102747.63
2022-10-19T17:51:45.185Z,102741.19
2022-10-19T17:54:13.255Z,102738.00
2022-10-19T17:56:40.921Z,102733.09
2022-10-19T17:59:08.824Z,102728.41
2022-10-19T18:01:37.309Z,102728.50
2022-10-19T18:04:05.960Z,102738.72
2022-10-19T18:06:35.840Z,102747.38
2022-10-19T18:09:24.847Z,102742.56
2022-10-19T18:12:07.126Z,102736.97
2022-10-19T18:14:42.090Z,102747.06
2022-10-19T18:17:10.379Z,102739.22
2022-10-19T18:19:45.851Z,102733.81
2022-10-19T18:22:13.892Z,102718.97
2022-10-19T18:24:41.410Z,102724.28
2022-10-19T18:27:08.851Z,102727.19
2022-10-19T18:29:35.934Z,102724.25
2022-10-19T18:32:02.735Z,102727.00
2022-10-19T18:34:29.355Z,102733.88
2022-10-19T18:36:55.989Z,102733.53
2022-10-19T18:39:23.084Z,102730.66
2022-10-19T18:41:52.207Z,102716.84
2022-10-19T18:44:23.539Z,102724.91
2022-10-19T18:46:53.339Z,102734.25
2022-10-19T18:49:19.940Z,102725.09
2022-10-19T18:51:50.642Z,102716.91
2022-10-19T18:54:21.041Z,102722.44
2022-10-19T18:56:47.490Z,102724.03
2022-10-19T18:59:15.390Z,102718.84
2022-10-19T19:01:42.260Z,102727.72
2022-10-19T19:04:09.729Z,102724.25
2022-10-19T19:06:37.288Z,102712.59
2022-10-19T19:09:09.645Z,102714.91
2022-10-19T19:11:38.221Z,102717.38
2022-10-19T19:14:15.090Z,102708.97
2022-10-19T19:16:45.010Z,102708.97
2022-10-19T19:19:13.182Z,102695.25
2022-10-19T19:21:43.483Z,102695.78
2022-10-19T19:24:12.483Z,102695.50
2022-10-19T19:26:41.437Z,102691.91
2022-10-19T19:29:09.141Z,102686.50
2022-10-19T19:31:36.040Z,102680.56
2022-10-19T19:34:03.339Z,102681.91
2022-10-19T19:36:30.019Z,102681.28
2022-10-19T19:38:56.772Z,102673.50
2022-10-19T19:41:24.358Z,102661.34
2022-10-19T19:43:50.979Z,102667.47
2022-10-19T19:46:18.942Z,102659.22
2022-10-19T19:48:47.360Z,102663.16
2022-10-19T19:51:19.078Z,102671.47
2022-10-19T19:53:46.733Z,102661.91
2022-10-19T19:56:14.784Z,102672.03
2022-10-19T19:58:42.567Z,102669.38
2022-10-19T20:01:12.468Z,102660.75
2022-10-19T20:03:40.059Z,102661.06
2022-10-19T20:06:06.918Z,102659.78
2022-10-19T20:08:34.113Z,102646.38
2022-10-19T20:11:03.409Z,102642.59
2022-10-19T20:13:30.426Z,102631.63
2022-10-19T20:15:57.066Z,102637.03
2022-10-19T20:18:23.565Z,102631.13
2022-10-19T20:20:50.097Z,102628.69
2022-10-19T20:23:16.595Z,102627.88
2022-10-19T20:25:43.119Z,102628.28
2022-10-19T20:28:09.720Z,102627.38
2022-10-19T20:30:36.211Z,102626.22
2022-10-19T20:33:02.715Z,102619.16
2022-10-19T20:35:29.191Z,102617.56
2022-10-19T20:37:57.688Z,102612.81
2022-10-19T20:40:24.239Z,102613.31
2022-10-19T20:42:50.811Z,102602.56
2022-10-19T20:45:17.512Z,102607.63
2022-10-19T20:47:44.117Z,102599.59
2022-10-19T20:50:10.675Z,102599.44
2022-10-19T20:52:38.464Z,102589.69
2022-10-19T20:55:06.326Z,102594.69
2022-10-19T20:57:32.820Z,102590.53
2022-10-19T20:59:59.350Z,102588.97
2022-10-19T21:02:26.354Z,102585.81
2022-10-19T21:04:53.765Z,102585.56
2022-10-19T21:07:20.618Z,102576.06
2022-10-19T21:09:47.251Z,102583.53
2022-10-19T21:12:14.038Z,102578.34
2022-10-19T21:14:40.624Z,102574.72
2022-10-19T21:17:07.068Z,102574.84
2022-10-19T21:19:34.282Z,102590.41
2022-10-19T21:22:03.578Z,102584.94
2022-10-19T21:24:34.761Z,102585.81
2022-10-19T21:27:03.858Z,102576.31
2022-10-19T21:29:30.668Z,102585.91
2022-10-19T21:31:57.258Z,102573.75
2022-10-19T21:34:26.797Z,102582.34
2022-10-19T21:36:53.990Z,102579.63
2022-10-19T21:39:20.876Z,102575.06
2022-10-19T21:41:47.856Z,102569.38
2022-10-19T21:44:15.265Z,102574.19
2022-10-19T21:46:43.569Z,102566.97
2022-10-19T21:49:13.500Z,102568.50
2022-10-19T21:51:48.708Z,102569.38
2022-10-19T21:54:18.355Z,102566.44
2022-10-19T21:56:45.611Z,102570.47
2022-10-19T21:59:12.798Z,102565.94
2022-10-19T22:01:41.780Z,102556.84
2022-10-19T22:04:14.560Z,102559.16
2022-10-19T22:06:41.689Z,102549.41
2022-10-19T22:09:10.376Z,102543.00
2022-10-19T22:11:37.093Z,102550.53
2022-10-19T22:14:04.540Z,102547.44
2022-10-19T22:16:32.101Z,102546.19
2022-10-19T22:19:02.403Z,102533.91
2022-10-19T22:21:30.855Z,102531.16
2022-10-19T22:24:09.120Z,102528.41
2022-10-19T22:26:41.817Z,102535.00
2022-10-19T22:29:08.649Z,102526.59
2022-10-19T22:31:38.491Z,102533.31
2022-10-19T22:34:07.962Z,102525.50
2022-10-19T22:36:35.766Z,102529.47
2022-10-19T22:39:04.118Z,102532.19
2022-10-19T22:41:30.769Z,102531.44
2022-10-19T22:43:57.255Z,102523.97
2022-10-19T22:46:23.849Z,102519.66
2022-10-19T22:48:50.315Z,102511.16
2022-10-19T22:51:16.904Z,102516.28
2022-10-19T22:53:43.452Z,102515.13
2022-10-19T22:56:14.416Z,102514.00
2022-10-19T22:58:41.222Z,102499.16
2022-10-19T23:01:10.588Z,102500.84
2022-10-19T23:03:39.275Z,102497.69
2022-10-19T23:06:10.575Z,102498.31
2022-10-19T23:08:37.129Z,102488.09
2022-10-19T23:11:03.730Z,102491.88
2022-10-19T23:13:30.248Z,102493.69
2022-10-19T23:15:56.820Z,102491.97
2022-10-19T23:18:23.388Z,102485.47
2022-10-19T23:20:57.440Z,102491.06
2022-10-19T23:23:24.227Z,102484.84
2022-10-19T23:26:18.160Z,102488.13
2022-10-19T23:28:46.291Z,102492.09
2022-10-19T23:31:15.649Z,102482.19
2022-10-19T23:33:42.983Z,102477.56
2022-10-19T23:36:14.359Z,102486.94
2022-10-19T23:38:42.302Z,102474.63
2022-10-19T23:41:08.928Z,102459.69
2022-10-19T23:48:44.205Z,102465.25
2022-10-19T23:51:13.659Z,102455.81
2022-10-19T23:53:41.733Z,102464.97
2022-10-19T23:56:20.018Z,102459.88
2022-10-19T23:58:46.936Z,102464.53
